TimeMDT,TemperatureF,Dew PointF,Humidity,Sea Level PressureIn,VisibilityMPH,Wind Direction,Wind SpeedMPH,Gust SpeedMPH,PrecipitationIn,Events,Conditions,WindDirDegrees,DateUTC
12:24 AM,32.0,30.2,93,29.87,1.8,SSE,9.2,-,N/A,,Overcast,150,2012-10-12 06:24:00
12:30 AM,30.2,30.2,100,29.86,0.5,SSE,11.5,-,N/A,Fog,Light Freezing Fog,150,2012-10-12 06:30:00
12:40 AM,30.2,30.2,100,29.86,0.2,SSE,13.8,-,N/A,Fog,Light Freezing Fog,160,2012-10-12 06:40:00
12:56 AM,30.9,30.9,100,29.94,0.2,SSE,9.2,-,N/A,Fog,Light Freezing Fog,160,2012-10-12 06:56:00
1:56 AM,30.2,30.2,100,29.84,0.2,Calm,Calm,-,N/A,Fog,Light Freezing Fog,0,2012-10-12 07:56:00
2:56 AM,28.9,28.9,100,29.89,0.2,South,3.5,-,N/A,Fog,Light Freezing Fog,180,2012-10-12 08:56:00
3:03 AM,28.4,28.4,100,29.81,0.2,South,3.5,-,N/A,Fog,Light Freezing Fog,180,2012-10-12 09:03:00
3:31 AM,28.4,28.4,100,29.80,0.2,Calm,Calm,-,N/A,Fog,Light Freezing Fog,0,2012-10-12 09:31:00
3:44 AM,28.4,28.4,100,29.79,0.2,Calm,Calm,-,N/A,Fog,Light Freezing Fog,0,2012-10-12 09:44:00
3:56 AM,28.0,28.0,100,29.87,0.2,Calm,Calm,-,N/A,Fog,Light Freezing Fog,0,2012-10-12 09:56:00
4:19 AM,28.4,26.6,93,29.79,0.2,SSE,3.5,-,N/A,Fog,Light Freezing Fog,150,2012-10-12 10:19:00
4:56 AM,26.1,25.0,96,29.86,0.2,South,4.6,-,N/A,Fog,Light Freezing Fog,180,2012-10-12 10:56:00
5:46 AM,24.8,23.0,93,29.77,1.0,SSW,3.5,-,N/A,,Mist,200,2012-10-12 11:46:00
5:51 AM,24.8,23.0,93,29.77,4.0,Calm,Calm,-,N/A,,Mostly Cloudy,0,2012-10-12 11:51:00
5:56 AM,25.0,24.1,96,29.85,10.0,SSW,3.5,-,N/A,,Scattered Clouds,200,2012-10-12 11:56:00
6:56 AM,26.1,24.1,92,29.85,10.0,Calm,Calm,-,N/A,,Clear,0,2012-10-12 12:56:00
7:56 AM,26.1,25.0,96,29.82,10.0,SSW,3.5,-,N/A,,Clear,200,2012-10-12 13:56:00
8:56 AM,36.0,32.0,86,29.80,10.0,Calm,Calm,-,N/A,,Clear,0,2012-10-12 14:56:00
9:56 AM,54.0,35.1,49,29.74,10.0,WSW,21.9,26.5,N/A,,Clear,240,2012-10-12 15:56:00
10:56 AM,60.1,32.0,35,29.70,10.0,SW,23.0,28.8,N/A,,Clear,230,2012-10-12 16:56:00
11:56 AM,63.0,28.9,28,29.69,10.0,WSW,19.6,24.2,N/A,,Clear,240,2012-10-12 17:56:00
12:56 PM,62.6,26.6,26,29.68,10.0,SSW,13.8,-,N/A,,Clear,210,2012-10-12 18:56:00
1:56 PM,64.4,21.2,19,29.66,10.0,WSW,23.0,32.2,N/A,,Clear,250,2012-10-12 19:56:00
2:56 PM,63.0,21.9,21,29.65,10.0,WSW,20.7,-,N/A,,Clear,250,2012-10-12 20:56:00
3:56 PM,63.0,23.0,22,29.66,10.0,WSW,20.7,29.9,N/A,,Clear,250,2012-10-12 21:56:00
4:56 PM,62.6,24.8,24,29.69,10.0,West,11.5,-,N/A,,Clear,270,2012-10-12 22:56:00
5:56 PM,57.9,28.0,32,29.72,10.0,West,17.3,-,N/A,,Clear,260,2012-10-12 23:56:00
6:56 PM,53.6,28.4,38,29.72,10.0,WSW,11.5,-,N/A,,Clear,250,2012-10-13 00:56:00
7:56 PM,53.6,28.4,38,29.73,10.0,WSW,9.2,-,N/A,,Clear,240,2012-10-13 01:56:00
8:56 PM,54.0,30.0,40,29.75,10.0,West,13.8,-,N/A,,Clear,260,2012-10-13 02:56:00
9:56 PM,53.6,30.2,41,29.76,10.0,West,15.0,-,N/A,,Clear,260,2012-10-13 03:56:00
10:56 PM,54.0,30.9,41,29.73,10.0,WSW,15.0,-,N/A,,Clear,250,2012-10-13 04:56:00
11:56 PM,53.6,32.0,44,29.79,10.0,WSW,12.7,-,N/A,,Clear,240,2012-10-13 05:56:00